createdAt,value
2023-01-26T00:01:51.439Z,43.93
2023-01-26T00:04:20.799Z,44.03
2023-01-26T00:06:48.923Z,44.20
2023-01-26T00:09:16.770Z,44.70
2023-01-26T00:11:44.748Z,44.80
2023-01-26T00:14:12.766Z,43.33
2023-01-26T00:16:40.976Z,44.47
2023-01-26T00:19:09.617Z,43.13
2023-01-26T00:21:39.060Z,43.73
2023-01-26T00:24:07.672Z,43.73
2023-01-26T00:26:35.689Z,44.27
2023-01-26T00:29:03.680Z,43.87
2023-01-26T00:31:31.752Z,45.50
2023-01-26T00:34:00.745Z,46.10
2023-01-26T00:36:28.695Z,42.03
2023-01-26T00:38:58.139Z,43.53
2023-01-26T00:41:43.378Z,43.70
2023-01-26T00:44:11.357Z,43.50
2023-01-26T00:46:39.446Z,43.67
2023-01-26T00:49:08.326Z,43.07
2023-01-26T00:51:36.291Z,42.57
2023-01-26T00:54:06.994Z,41.57
2023-01-26T00:56:35.079Z,44.37
2023-01-26T00:59:03.107Z,42.70
2023-01-26T01:01:31.136Z,43.50
2023-01-26T01:03:59.286Z,42.97
2023-01-26T01:06:27.747Z,41.10
2023-01-26T01:08:55.821Z,43.13
2023-01-26T01:11:25.246Z,43.40
2023-01-26T01:13:53.311Z,43.87
2023-01-26T01:16:21.708Z,43.80
2023-01-26T01:18:50.113Z,42.10
2023-01-26T01:21:18.942Z,41.67
2023-01-26T01:23:47.542Z,42.37
2023-01-26T01:26:16.370Z,40.37
2023-01-26T01:28:46.424Z,40.67
2023-01-26T01:31:15.969Z,41.07
2023-01-26T01:33:44.455Z,38.63
2023-01-26T01:36:17.750Z,42.63
2023-01-26T01:38:47.064Z,38.67
2023-01-26T01:41:16.526Z,38.57
2023-01-26T01:43:46.490Z,38.90
2023-01-26T01:46:23.881Z,40.27
2023-01-26T01:48:55.013Z,37.10
2023-01-26T01:51:30.858Z,36.63
2023-01-26T01:54:04.542Z,36.43
2023-01-26T01:56:35.209Z,35.73
2023-01-26T01:59:06.721Z,35.93
2023-01-26T02:01:34.822Z,37.77
2023-01-26T02:04:07.159Z,37.30
2023-01-26T02:06:46.135Z,35.43
2023-01-26T02:09:34.623Z,36.27
2023-01-26T02:12:04.581Z,34.30
2023-01-26T02:14:34.647Z,36.83
2023-01-26T02:17:02.798Z,33.70
2023-01-26T02:19:38.494Z,33.60
2023-01-26T02:22:12.024Z,34.33
2023-01-26T02:24:41.487Z,35.30
2023-01-26T02:27:10.890Z,33.27
2023-01-26T02:29:39.098Z,34.57
2023-01-26T02:32:07.633Z,34.50
2023-01-26T02:34:35.915Z,33.40
2023-01-26T02:37:04.153Z,34.60
2023-01-26T02:39:45.351Z,34.23
2023-01-26T02:42:32.530Z,33.60
2023-01-26T02:45:01.089Z,32.10
2023-01-26T02:47:30.785Z,32.03
2023-01-26T02:49:58.796Z,32.97
2023-01-26T02:52:30.900Z,33.93
2023-01-26T02:55:20.395Z,32.50
2023-01-26T02:57:50.922Z,31.40
2023-01-26T03:00:20.700Z,32.63
2023-01-26T03:02:52.188Z,30.27
2023-01-26T03:05:20.639Z,32.23
2023-01-26T03:07:48.996Z,30.50
2023-01-26T03:10:18.344Z,33.20
2023-01-26T03:12:46.973Z,33.33
2023-01-26T03:15:33.944Z,30.87
2023-01-26T03:18:23.746Z,30.63
2023-01-26T03:21:09.087Z,31.80
2023-01-26T03:23:54.498Z,32.60
2023-01-26T03:26:41.689Z,29.70
2023-01-26T03:29:09.965Z,31.93
2023-01-26T03:31:40.632Z,32.83
2023-01-26T03:34:08.871Z,32.63
2023-01-26T03:36:38.037Z,32.57
2023-01-26T03:39:30.458Z,32.50
2023-01-26T03:42:15.819Z,33.67
2023-01-26T03:45:01.427Z,34.70
2023-01-26T03:47:50.233Z,36.93
2023-01-26T03:50:35.749Z,34.63
2023-01-26T03:53:21.240Z,35.60
2023-01-26T03:56:06.714Z,35.50
2023-01-26T03:58:35.067Z,36.13
2023-01-26T04:01:02.995Z,35.50
2023-01-26T04:03:49.918Z,35.67
2023-01-26T04:06:35.404Z,34.53
2023-01-26T04:09:03.833Z,37.30
2023-01-26T04:11:32.135Z,35.03
2023-01-26T04:14:17.501Z,34.77
2023-01-26T04:17:03.239Z,36.97
2023-01-26T04:19:50.285Z,34.97
2023-01-26T04:22:18.526Z,33.90
2023-01-26T04:24:49.015Z,35.33
2023-01-26T04:27:17.014Z,30.77
2023-01-26T04:29:44.965Z,32.07
2023-01-26T04:32:13.202Z,31.47
2023-01-26T04:34:43.424Z,30.57
2023-01-26T04:37:20.458Z,31.93
2023-01-26T04:39:49.212Z,31.50
2023-01-26T04:42:18.447Z,32.87
2023-01-26T04:44:46.490Z,33.93
2023-01-26T04:47:15.532Z,33.13
2023-01-26T04:49:45.779Z,30.47
2023-01-26T04:52:18.505Z,30.83
2023-01-26T04:54:46.601Z,32.43
2023-01-26T04:57:15.111Z,32.10
2023-01-26T04:59:47.457Z,30.67
2023-01-26T05:02:15.720Z,30.80
2023-01-26T05:04:45.166Z,29.97
2023-01-26T05:07:13.965Z,30.27
2023-01-26T05:09:42.067Z,31.50
2023-01-26T05:12:35.079Z,31.17
2023-01-26T05:15:21.534Z,29.33
2023-01-26T05:18:00.115Z,29.20
2023-01-26T05:20:39.543Z,30.67
2023-01-26T05:23:16.870Z,30.73
2023-01-26T05:26:04.037Z,28.70
2023-01-26T05:28:38.291Z,30.33
2023-01-26T05:31:06.556Z,30.77
2023-01-26T05:33:34.946Z,29.07
2023-01-26T05:36:08.346Z,30.07
2023-01-26T05:38:36.859Z,30.03
2023-01-26T05:41:05.305Z,30.33
2023-01-26T05:43:43.217Z,30.23
2023-01-26T05:46:31.291Z,29.90
2023-01-26T05:48:59.315Z,30.47
2023-01-26T05:51:28.685Z,29.33
2023-01-26T05:53:57.040Z,29.37
2023-01-26T05:56:26.155Z,27.03
2023-01-26T05:59:00.027Z,28.40
2023-01-26T06:01:28.248Z,27.80
2023-01-26T06:04:00.884Z,26.20
2023-01-26T06:06:37.783Z,25.87
2023-01-26T06:09:38.171Z,26.13
2023-01-26T06:12:25.250Z,24.80
2023-01-26T06:14:53.396Z,25.57
2023-01-26T06:17:21.368Z,24.87
2023-01-26T06:19:54.399Z,25.40
2023-01-26T06:22:24.047Z,24.87
2023-01-26T06:24:53.077Z,23.90
2023-01-26T06:27:21.861Z,23.27
2023-01-26T06:29:51.993Z,25.20
2023-01-26T06:32:20.229Z,25.37
2023-01-26T06:34:53.909Z,26.30
2023-01-26T06:37:24.605Z,25.20
2023-01-26T06:39:53.720Z,25.53
2023-01-26T06:42:21.672Z,26.20
2023-01-26T06:44:49.713Z,24.30
2023-01-26T06:47:18.235Z,24.93
2023-01-26T06:49:46.566Z,24.50
2023-01-26T06:52:32.661Z,24.30
2023-01-26T06:55:18.216Z,24.67
2023-01-26T06:57:52.658Z,23.80
2023-01-26T07:00:39.829Z,24.17
2023-01-26T07:03:26.608Z,24.03
2023-01-26T07:05:54.564Z,23.33
2023-01-26T07:08:23.988Z,23.67
2023-01-26T07:10:52.480Z,24.37
2023-01-26T07:13:21.261Z,23.33
2023-01-26T07:15:49.227Z,24.60
2023-01-26T07:18:17.099Z,23.63
2023-01-26T07:20:45.021Z,22.53
2023-01-26T07:23:13.076Z,23.77
2023-01-26T07:25:45.760Z,23.33
2023-01-26T07:28:13.778Z,24.93
2023-01-26T07:30:42.129Z,22.23
2023-01-26T07:33:10.295Z,24.50
2023-01-26T07:35:38.648Z,23.83
2023-01-26T07:38:06.837Z,23.37
2023-01-26T07:40:35.260Z,24.73
2023-01-26T07:43:04.944Z,24.30
2023-01-26T07:45:51.351Z,24.33
2023-01-26T07:48:19.840Z,23.60
2023-01-26T07:50:48.632Z,24.60
2023-01-26T07:53:19.357Z,23.90
2023-01-26T07:55:48.039Z,23.30
2023-01-26T07:58:18.545Z,23.73
2023-01-26T08:00:47.946Z,23.10
2023-01-26T08:03:16.200Z,23.83
2023-01-26T08:05:44.520Z,24.07
2023-01-26T08:08:12.680Z,24.87
2023-01-26T08:10:40.762Z,28.00
2023-01-26T08:13:08.885Z,25.30
2023-01-26T08:15:38.301Z,25.00
2023-01-26T08:18:06.274Z,26.10
2023-01-26T08:20:35.367Z,26.00
2023-01-26T08:23:03.338Z,25.47
2023-01-26T08:25:32.975Z,25.37
2023-01-26T08:28:00.993Z,25.23
2023-01-26T08:30:29.301Z,23.23
2023-01-26T08:32:59.202Z,24.40
2023-01-26T08:35:27.234Z,25.17
2023-01-26T08:37:55.224Z,25.23
2023-01-26T08:40:24.718Z,23.00
2023-01-26T08:42:53.087Z,23.97
2023-01-26T08:45:21.780Z,24.40
2023-01-26T08:47:51.229Z,23.43
2023-01-26T08:50:20.690Z,24.00
2023-01-26T08:52:48.657Z,23.63
2023-01-26T08:55:17.002Z,23.67
2023-01-26T08:57:45.308Z,24.23
2023-01-26T09:00:14.790Z,24.03
2023-01-26T09:02:42.881Z,25.47
2023-01-26T09:05:11.359Z,23.60
2023-01-26T09:07:40.666Z,25.53
2023-01-26T09:10:10.775Z,24.50
2023-01-26T09:12:40.966Z,24.07
2023-01-26T09:15:10.355Z,24.10
2023-01-26T09:17:38.652Z,23.73
2023-01-26T09:20:08.687Z,23.43
2023-01-26T09:22:36.717Z,25.30
2023-01-26T09:25:07.067Z,24.53
2023-01-26T09:27:35.001Z,24.30
2023-01-26T09:30:03.350Z,23.37
2023-01-26T09:32:31.448Z,22.23
2023-01-26T09:34:59.483Z,21.23
2023-01-26T09:37:27.497Z,22.47
2023-01-26T09:39:55.507Z,22.30
2023-01-26T09:42:37.202Z,21.27
2023-01-26T09:45:23.917Z,20.63
2023-01-26T09:48:04.191Z,20.37
2023-01-26T09:50:39.370Z,20.73
2023-01-26T09:53:13.296Z,20.23
2023-01-26T09:55:42.832Z,19.93
2023-01-26T09:58:16.920Z,18.70
2023-01-26T10:00:48.486Z,18.70
2023-01-26T10:03:26.016Z,19.90
2023-01-26T10:06:00.691Z,17.40
2023-01-26T10:08:47.120Z,19.00
2023-01-26T10:11:20.849Z,18.93
2023-01-26T10:13:56.470Z,19.80
2023-01-26T10:16:25.364Z,19.60
2023-01-26T10:19:00.191Z,17.73
2023-01-26T10:21:34.536Z,17.63
2023-01-26T10:24:05.853Z,17.00
2023-01-26T10:26:35.240Z,17.17
2023-01-26T10:29:07.852Z,15.27
2023-01-26T10:31:36.130Z,14.43
2023-01-26T10:34:15.386Z,13.50
2023-01-26T10:36:46.517Z,13.40
2023-01-26T10:39:16.971Z,12.83
2023-01-26T10:42:00.906Z,12.97
2023-01-26T10:44:36.568Z,13.93
2023-01-26T10:47:18.701Z,13.93
2023-01-26T10:49:47.173Z,15.23
2023-01-26T10:52:21.912Z,15.70
2023-01-26T10:54:51.868Z,13.97
2023-01-26T10:57:28.285Z,13.90
2023-01-26T11:00:00.289Z,14.57
2023-01-26T11:02:30.231Z,12.97
2023-01-26T11:05:21.409Z,13.07
2023-01-26T11:07:51.350Z,11.80
2023-01-26T11:10:29.020Z,13.30
2023-01-26T11:13:24.313Z,14.30
2023-01-26T11:16:04.789Z,13.80
2023-01-26T11:18:48.343Z,12.67
2023-01-26T11:21:24.508Z,12.00
2023-01-26T11:24:01.754Z,13.23
2023-01-26T11:26:58.473Z,12.27
2023-01-26T11:29:42.903Z,12.13
2023-01-26T11:32:25.657Z,11.30
2023-01-26T11:35:05.839Z,11.90
2023-01-26T11:37:46.328Z,11.53
2023-01-26T11:40:33.612Z,11.80
2023-01-26T11:43:35.104Z,12.30
2023-01-26T11:46:16.594Z,11.33
2023-01-26T11:48:57.912Z,12.13
2023-01-26T11:51:42.996Z,11.20
2023-01-26T11:54:23.928Z,11.50
2023-01-26T11:57:04.834Z,11.50
2023-01-26T11:59:37.569Z,11.13
2023-01-26T12:02:16.022Z,12.93
2023-01-26T12:04:48.186Z,12.00
2023-01-26T12:07:22.466Z,12.80
2023-01-26T12:09:53.182Z,12.87
2023-01-26T12:12:28.943Z,11.30
2023-01-26T12:15:06.017Z,10.33
2023-01-26T12:17:49.371Z,10.67
2023-01-26T12:20:28.938Z,10.87
2023-01-26T12:23:05.065Z,9.87
2023-01-26T12:25:36.259Z,10.00
2023-01-26T12:28:18.696Z,10.10
2023-01-26T12:30:53.250Z,9.13
2023-01-26T12:33:21.708Z,9.40
2023-01-26T12:36:17.025Z,9.87
2023-01-26T12:39:01.746Z,10.30
2023-01-26T12:41:39.706Z,9.27
2023-01-26T12:44:23.110Z,9.13
2023-01-26T12:46:56.194Z,8.93
2023-01-26T12:49:30.641Z,9.33
2023-01-26T12:52:08.974Z,9.67
2023-01-26T12:54:45.174Z,11.23
2023-01-26T12:57:18.273Z,10.67
2023-01-26T12:59:48.889Z,10.70
2023-01-26T13:02:26.889Z,11.93
2023-01-26T13:04:58.378Z,11.37
2023-01-26T13:07:34.910Z,12.27
2023-01-26T13:10:20.958Z,11.70
2023-01-26T13:12:51.429Z,11.57
2023-01-26T13:15:21.615Z,12.17
2023-01-26T13:17:59.148Z,13.10
2023-01-26T13:20:46.981Z,14.23
2023-01-26T13:23:43.062Z,15.47
2023-01-26T13:26:24.939Z,14.80
2023-01-26T13:28:54.642Z,14.13
2023-01-26T13:31:34.107Z,16.77
2023-01-26T13:34:09.081Z,15.77
2023-01-26T13:36:40.272Z,16.17
2023-01-26T13:39:20.053Z,18.07
2023-01-26T13:41:49.194Z,18.33
2023-01-26T13:44:23.006Z,18.47
2023-01-26T13:46:56.901Z,18.77
2023-01-26T13:49:26.739Z,19.23
2023-01-26T13:51:55.143Z,21.43
2023-01-26T13:54:28.063Z,22.87
2023-01-26T13:57:05.075Z,22.80
2023-01-26T13:59:34.615Z,22.70
2023-01-26T14:02:03.107Z,24.70
2023-01-26T14:04:32.794Z,26.37
2023-01-26T14:07:07.106Z,24.47
2023-01-26T14:09:46.798Z,28.97
2023-01-26T14:12:22.031Z,30.40
2023-01-26T14:14:52.651Z,29.20
2023-01-26T14:17:31.566Z,30.50
2023-01-26T14:20:03.559Z,30.80
2023-01-26T14:22:32.036Z,29.03
2023-01-26T14:25:01.574Z,29.23
2023-01-26T14:27:37.607Z,28.73
2023-01-26T14:30:23.181Z,26.60
2023-01-26T14:32:57.951Z,25.00
2023-01-26T14:35:26.834Z,22.47
2023-01-26T14:38:07.674Z,22.53
2023-01-26T14:40:38.036Z,20.63
2023-01-26T14:43:06.883Z,18.70
2023-01-26T14:45:35.544Z,19.87
2023-01-26T14:48:08.300Z,18.73
2023-01-26T14:50:41.381Z,16.47
2023-01-26T14:53:18.922Z,16.10
2023-01-26T14:55:50.005Z,16.00
2023-01-26T14:58:24.143Z,16.77
2023-01-26T15:00:55.278Z,16.73
2023-01-26T15:03:28.156Z,16.97
2023-01-26T15:06:20.453Z,16.33
2023-01-26T15:09:01.191Z,16.63
2023-01-26T15:11:52.333Z,17.13
2023-01-26T15:14:35.646Z,17.57
2023-01-26T15:17:04.524Z,17.13
2023-01-26T15:19:39.369Z,16.70
2023-01-26T15:22:17.852Z,17.00
2023-01-26T15:24:48.399Z,17.93
2023-01-26T15:27:17.893Z,17.07
2023-01-26T15:29:45.904Z,16.40
2023-01-26T15:32:29.719Z,16.90
2023-01-26T15:35:09.554Z,14.60
2023-01-26T15:37:37.679Z,15.50
2023-01-26T15:40:06.755Z,15.60
2023-01-26T15:42:36.424Z,17.17
2023-01-26T15:45:05.007Z,15.50
2023-01-26T15:47:32.932Z,14.37
2023-01-26T15:50:00.979Z,14.90
2023-01-26T15:52:31.306Z,15.03
2023-01-26T15:54:59.341Z,15.63
2023-01-26T15:57:27.359Z,15.30
2023-01-26T15:59:56.796Z,14.17
2023-01-26T16:02:24.792Z,15.87
2023-01-26T16:04:52.943Z,15.87
2023-01-26T16:07:21.023Z,14.63
2023-01-26T16:09:51.058Z,15.37
2023-01-26T16:12:31.203Z,15.77
2023-01-26T16:15:02.278Z,16.50
2023-01-26T16:17:30.791Z,16.90
2023-01-26T16:20:00.289Z,16.03
2023-01-26T16:22:28.255Z,15.80
2023-01-26T16:24:56.239Z,14.17
2023-01-26T16:27:24.256Z,14.63
2023-01-26T16:29:52.460Z,15.43
2023-01-26T16:32:28.389Z,14.50
2023-01-26T16:34:56.377Z,15.70
2023-01-26T16:37:24.345Z,15.77
2023-01-26T16:39:52.398Z,16.47
2023-01-26T16:42:22.435Z,16.57
2023-01-26T16:44:50.540Z,17.77
2023-01-26T16:47:18.517Z,16.33
2023-01-26T16:49:47.943Z,16.77
2023-01-26T16:52:16.080Z,15.53
2023-01-26T16:54:45.694Z,16.17
2023-01-26T16:57:13.699Z,16.07
2023-01-26T16:59:41.754Z,14.80
2023-01-26T17:02:24.477Z,14.87
2023-01-26T17:04:54.127Z,14.77
2023-01-26T17:07:22.194Z,14.17
2023-01-26T17:09:50.761Z,14.93
2023-01-26T17:12:18.946Z,13.57
2023-01-26T17:14:46.911Z,13.83
2023-01-26T17:17:15.005Z,14.00
2023-01-26T17:19:43.143Z,14.60
2023-01-26T17:22:12.914Z,14.87
2023-01-26T17:24:42.785Z,15.10
2023-01-26T17:27:12.055Z,15.03
2023-01-26T17:29:42.244Z,14.80
2023-01-26T17:32:10.235Z,14.23
2023-01-26T17:34:38.231Z,14.17
2023-01-26T17:37:06.162Z,15.00
2023-01-26T17:39:36.026Z,15.63
2023-01-26T17:42:03.933Z,15.50
2023-01-26T17:44:32.114Z,14.67
2023-01-26T17:47:00.606Z,13.73
2023-01-26T17:49:28.599Z,14.70
2023-01-26T17:51:56.459Z,14.07
2023-01-26T17:54:24.686Z,14.37
2023-01-26T17:56:54.883Z,15.53
2023-01-26T17:59:23.365Z,14.33
2023-01-26T18:01:51.664Z,14.27
2023-01-26T18:04:19.914Z,16.03
2023-01-26T18:06:47.855Z,14.57
2023-01-26T18:09:15.992Z,13.70
2023-01-26T18:11:43.935Z,14.57
2023-01-26T18:14:13.326Z,14.40
2023-01-26T18:16:41.365Z,13.73
2023-01-26T18:19:09.343Z,14.00
2023-01-26T18:21:37.350Z,14.47
2023-01-26T18:24:07.168Z,14.70
2023-01-26T18:26:37.853Z,13.57
2023-01-26T18:29:07.089Z,14.37
2023-01-26T18:31:40.571Z,13.17
2023-01-26T18:34:09.104Z,12.83
2023-01-26T18:36:37.045Z,13.87
2023-01-26T18:39:07.131Z,13.97
2023-01-26T18:41:35.855Z,14.17
2023-01-26T18:44:04.295Z,13.87
2023-01-26T18:46:32.521Z,13.10
2023-01-26T18:49:03.458Z,13.63
2023-01-26T18:51:33.439Z,13.43
2023-01-26T18:54:03.843Z,13.80
2023-01-26T18:56:32.410Z,13.63
2023-01-26T18:59:00.761Z,13.13
2023-01-26T19:01:28.907Z,12.23
2023-01-26T19:03:58.120Z,12.67
2023-01-26T19:06:30.948Z,12.30
2023-01-26T19:09:01.396Z,13.77
2023-01-26T19:11:31.173Z,12.40
2023-01-26T19:13:59.517Z,13.53
2023-01-26T19:16:28.179Z,12.77
2023-01-26T19:18:56.748Z,13.23
2023-01-26T19:21:27.832Z,13.83
2023-01-26T19:23:58.420Z,13.37
2023-01-26T19:26:29.783Z,12.90
2023-01-26T19:28:58.007Z,12.87
2023-01-26T19:31:26.747Z,12.70
2023-01-26T19:33:56.268Z,11.03
2023-01-26T19:36:24.802Z,10.60
2023-01-26T19:38:54.551Z,10.50
2023-01-26T19:41:23.986Z,11.10
2023-01-26T19:43:52.312Z,11.60
2023-01-26T19:46:21.188Z,10.40
2023-01-26T19:48:49.406Z,10.13
2023-01-26T19:51:19.567Z,9.43
2023-01-26T19:53:49.606Z,9.40
2023-01-26T19:56:20.789Z,8.80
2023-01-26T19:58:51.097Z,8.70
2023-01-26T20:01:19.624Z,8.00
2023-01-26T20:03:50.846Z,7.50
2023-01-26T20:06:20.716Z,7.00
2023-01-26T20:08:49.336Z,6.30
2023-01-26T20:11:19.790Z,5.50
2023-01-26T20:13:47.833Z,5.43
2023-01-26T20:16:15.774Z,4.63
2023-01-26T20:18:43.992Z,4.77
2023-01-26T20:21:11.880Z,4.70
2023-01-26T20:23:53.406Z,5.53
2023-01-26T20:26:24.518Z,4.63
2023-01-26T20:28:54.011Z,5.03
2023-01-26T20:31:24.664Z,4.30
2023-01-26T20:33:53.583Z,4.37
2023-01-26T20:36:24.227Z,3.90
2023-01-26T20:38:52.658Z,3.77
2023-01-26T20:41:24.250Z,4.57
2023-01-26T20:43:59.731Z,4.40
2023-01-26T20:46:30.582Z,3.90
2023-01-26T20:48:58.814Z,3.80
2023-01-26T20:51:30.447Z,4.13
2023-01-26T20:53:59.081Z,4.23
2023-01-26T20:56:28.615Z,4.33
2023-01-26T20:58:57.139Z,4.67
2023-01-26T21:01:26.425Z,5.17
2023-01-26T21:03:55.287Z,4.27
2023-01-26T21:06:24.376Z,4.07
2023-01-26T21:08:55.229Z,4.40
2023-01-26T21:11:25.516Z,4.37
2023-01-26T21:13:56.037Z,4.60
2023-01-26T21:16:24.771Z,4.07
2023-01-26T21:18:53.121Z,3.60
2023-01-26T21:21:21.934Z,4.30
2023-01-26T21:23:50.310Z,4.10
2023-01-26T21:26:22.240Z,4.00
2023-01-26T21:28:51.962Z,3.90
2023-01-26T21:31:22.767Z,3.67
2023-01-26T21:33:51.334Z,3.70
2023-01-26T21:36:21.176Z,3.60
2023-01-26T21:38:52.121Z,3.80
2023-01-26T21:41:39.360Z,3.30
2023-01-26T21:44:09.058Z,3.40
2023-01-26T21:46:39.067Z,3.90
2023-01-26T21:49:07.120Z,4.13
2023-01-26T21:51:52.943Z,4.33
2023-01-26T21:54:20.876Z,4.00
2023-01-26T21:56:49.007Z,3.73
2023-01-26T21:59:17.786Z,3.67
2023-01-26T22:01:48.564Z,3.70
2023-01-26T22:04:18.727Z,3.30
2023-01-26T22:06:46.848Z,3.80
2023-01-26T22:09:16.567Z,3.63
2023-01-26T22:11:44.637Z,3.50
2023-01-26T22:14:16.531Z,3.60
2023-01-26T22:16:44.876Z,3.93
2023-01-26T22:19:14.903Z,4.13
2023-01-26T22:21:43.230Z,4.43
2023-01-26T22:24:13.402Z,3.50
2023-01-26T22:26:42.076Z,2.90
2023-01-26T22:29:12.400Z,3.30
2023-01-26T22:31:41.970Z,3.93
2023-01-26T22:34:12.917Z,3.80
2023-01-26T22:36:42.781Z,3.20
2023-01-26T22:39:12.265Z,2.87
2023-01-26T22:41:40.376Z,2.80
2023-01-26T22:44:08.425Z,3.10
2023-01-26T22:46:36.818Z,2.80
2023-01-26T22:49:05.906Z,2.33
2023-01-26T22:51:37.733Z,2.47
2023-01-26T22:54:07.164Z,2.70
2023-01-26T22:56:35.237Z,2.50
2023-01-26T22:59:03.519Z,2.50
2023-01-26T23:01:33.399Z,3.00
2023-01-26T23:04:02.340Z,2.57
2023-01-26T23:06:31.158Z,2.37
2023-01-26T23:09:01.093Z,2.07
2023-01-26T23:11:31.047Z,2.40
2023-01-26T23:14:00.170Z,2.03
2023-01-26T23:16:29.265Z,2.47
2023-01-26T23:18:59.417Z,2.20
2023-01-26T23:21:28.341Z,2.67
2023-01-26T23:23:56.317Z,2.37
2023-01-26T23:26:24.383Z,2.83
2023-01-26T23:28:53.886Z,2.47
2023-01-26T23:31:21.870Z,2.10
2023-01-26T23:33:50.001Z,2.60
2023-01-26T23:36:18.841Z,2.27
2023-01-26T23:38:46.907Z,2.20
2023-01-26T23:41:14.854Z,2.27
2023-01-26T23:43:43.319Z,2.63
2023-01-26T23:46:13.897Z,2.10
2023-01-26T23:48:42.013Z,2.43
2023-01-26T23:51:12.149Z,2.00
2023-01-26T23:53:40.529Z,2.10
2023-01-26T23:56:11.344Z,2.50
2023-01-26T23:58:39.293Z,2.00
